createdAt,value
2019-04-29T00:01:01.642Z,99.90
2019-04-29T00:03:32.639Z,99.90
2019-04-29T00:06:10.691Z,99.90
2019-04-29T00:08:41.365Z,99.90
2019-04-29T00:11:12.565Z,99.90
2019-04-29T00:13:43.721Z,99.90
2019-04-29T00:16:39.572Z,99.90
2019-04-29T00:19:28.065Z,99.90
2019-04-29T00:22:00.228Z,99.90
2019-04-29T00:24:30.818Z,99.90
2019-04-29T00:27:01.521Z,99.90
2019-04-29T00:29:32.226Z,99.90
2019-04-29T00:32:02.804Z,99.90
2019-04-29T00:34:34.735Z,99.90
2019-04-29T00:37:36.468Z,99.90
2019-04-29T00:40:20.254Z,99.90
2019-04-29T00:43:08.614Z,99.90
2019-04-29T00:45:39.364Z,99.90
2019-04-29T00:48:09.895Z,99.90
2019-04-29T00:50:40.388Z,99.90
2019-04-29T00:53:11.084Z,99.90
2019-04-29T00:55:41.683Z,99.90
2019-04-29T00:58:13.522Z,99.90
2019-04-29T01:00:45.660Z,99.90
2019-04-29T01:03:17.938Z,99.90
2019-04-29T01:05:48.572Z,99.90
2019-04-29T01:08:19.105Z,99.90
2019-04-29T01:10:49.738Z,99.90
2019-04-29T01:13:20.364Z,99.90
2019-04-29T01:15:51.900Z,99.90
2019-04-29T01:18:22.558Z,99.90
2019-04-29T01:20:53.289Z,99.90
2019-04-29T01:23:24.031Z,99.90
2019-04-29T01:25:58.901Z,99.90
2019-04-29T01:28:35.738Z,99.90
2019-04-29T01:31:14.632Z,99.90
2019-04-29T01:33:46.480Z,99.90
2019-04-29T01:36:35.074Z,99.90
2019-04-29T01:39:09.531Z,99.90
2019-04-29T01:42:02.426Z,99.90
2019-04-29T01:44:35.355Z,99.90
2019-04-29T01:47:06.405Z,99.90
2019-04-29T01:49:37.065Z,99.90
2019-04-29T01:52:09.783Z,99.90
2019-04-29T01:54:42.016Z,99.90
2019-04-29T01:57:13.123Z,99.90
2019-04-29T01:59:45.212Z,99.90
2019-04-29T02:02:16.463Z,99.90
2019-04-29T02:04:47.313Z,99.90
2019-04-29T02:07:17.983Z,99.90
2019-04-29T02:09:59.191Z,99.90
2019-04-29T02:12:30.853Z,99.90
2019-04-29T02:15:01.659Z,99.90
2019-04-29T02:17:35.436Z,99.90
2019-04-29T02:20:06.655Z,99.90
2019-04-29T02:23:14.699Z,99.90
2019-04-29T02:25:52.149Z,99.90
2019-04-29T02:28:51.383Z,99.90
2019-04-29T02:31:44.970Z,99.90
2019-04-29T02:34:47.122Z,99.90
2019-04-29T02:40:42.315Z,99.90
2019-04-29T02:47:33.878Z,99.90
2019-04-29T05:52:50.675Z,99.90
2019-04-29T05:55:21.362Z,99.90
2019-04-29T05:58:11.151Z,99.90
2019-04-29T06:00:45.659Z,99.90
2019-04-29T06:03:16.530Z,99.90
2019-04-29T06:05:46.970Z,99.90
2019-04-29T06:08:17.397Z,99.90
2019-04-29T06:10:49.067Z,99.90
2019-04-29T06:13:19.664Z,99.90
2019-04-29T06:15:50.236Z,99.90
2019-04-29T06:18:22.222Z,99.90
2019-04-29T06:20:53.224Z,99.90
2019-04-29T06:23:24.486Z,99.90
2019-04-29T06:25:55.008Z,99.90
2019-04-29T06:28:26.533Z,99.90
2019-04-29T06:30:57.598Z,99.90
2019-04-29T06:33:29.064Z,99.90
2019-04-29T06:36:03.609Z,99.90
2019-04-29T06:38:34.101Z,99.90
2019-04-29T06:41:09.826Z,99.90
2019-04-29T06:43:38.427Z,99.90
2019-04-29T06:46:11.497Z,99.90
2019-04-29T06:48:41.905Z,99.90
2019-04-29T06:51:13.626Z,99.90
2019-04-29T06:53:44.062Z,99.90
2019-04-29T06:56:15.463Z,99.90
2019-04-29T06:58:48.866Z,99.90
2019-04-29T07:01:17.957Z,99.90
2019-04-29T07:03:48.383Z,99.90
2019-04-29T07:06:18.786Z,99.90
2019-04-29T07:08:49.429Z,99.90
2019-04-29T07:11:21.537Z,99.90
2019-04-29T07:13:57.689Z,99.90
2019-04-29T07:16:31.867Z,99.90
2019-04-29T07:19:00.326Z,99.90
2019-04-29T07:21:31.474Z,99.90
2019-04-29T07:24:01.894Z,99.90
2019-04-29T07:26:33.468Z,99.90
2019-04-29T07:29:04.010Z,99.90
2019-04-29T07:31:35.214Z,99.90
2019-04-29T07:34:08.407Z,99.90
2019-04-29T07:36:38.257Z,99.90
2019-04-29T07:39:08.717Z,99.90
2019-04-29T07:41:41.041Z,99.90
2019-04-29T07:44:13.594Z,99.90
2019-04-29T07:46:57.040Z,99.90
2019-04-29T07:49:22.710Z,99.90
2019-04-29T07:51:53.165Z,99.90
2019-04-29T07:54:23.602Z,99.90
2019-04-29T07:56:54.011Z,99.90
2019-04-29T07:59:24.798Z,99.90
2019-04-29T08:01:59.506Z,99.90
2019-04-29T08:04:28.194Z,99.90
2019-04-29T08:07:00.378Z,99.90
2019-04-29T08:09:31.376Z,99.90
2019-04-29T08:12:02.066Z,99.90
2019-04-29T08:14:33.538Z,99.90
2019-04-29T08:17:04.006Z,99.90
2019-04-29T08:19:36.207Z,99.90
2019-04-29T08:22:06.627Z,99.90
2019-04-29T08:24:46.030Z,99.90
2019-04-29T08:27:39.515Z,99.90
2019-04-29T08:30:11.208Z,99.90
2019-04-29T08:32:44.037Z,99.90
2019-04-29T08:35:16.001Z,99.90
2019-04-29T08:37:46.794Z,99.90
2019-04-29T08:40:23.262Z,99.90
2019-04-29T08:42:59.858Z,99.90
2019-04-29T08:45:44.193Z,99.90
2019-04-29T08:48:18.674Z,99.90
2019-04-29T08:50:49.307Z,99.90
2019-04-29T08:53:22.145Z,99.90
2019-04-29T08:55:53.443Z,99.90
2019-04-29T08:58:24.249Z,99.90
2019-04-29T09:00:55.846Z,99.90
2019-04-29T09:03:39.596Z,99.90
2019-04-29T09:06:05.761Z,99.90
2019-04-29T09:08:34.599Z,99.90
2019-04-29T09:11:08.259Z,99.90
2019-04-29T09:13:39.560Z,99.90
2019-04-29T09:16:10.743Z,99.90
2019-04-29T09:18:41.578Z,99.90
2019-04-29T09:21:12.327Z,99.90
2019-04-29T09:23:42.919Z,99.90
2019-04-29T09:26:26.619Z,99.90
2019-04-29T09:29:27.684Z,99.90
2019-04-29T09:31:58.235Z,99.90
2019-04-29T09:34:28.933Z,99.90
2019-04-29T09:37:00.571Z,99.90
2019-04-29T09:39:42.915Z,99.90
2019-04-29T09:42:24.217Z,99.90
2019-04-29T09:45:06.676Z,99.90
2019-04-29T09:47:37.451Z,99.90
2019-04-29T09:50:08.377Z,99.90
2019-04-29T09:52:38.854Z,99.90
2019-04-29T09:55:09.619Z,99.90
2019-04-29T09:57:40.095Z,99.90
2019-04-29T10:00:18.941Z,99.90
2019-04-29T10:02:54.426Z,99.90
2019-04-29T10:05:42.501Z,99.90
2019-04-29T10:08:12.979Z,99.90
2019-04-29T10:10:44.512Z,99.90
2019-04-29T10:13:15.694Z,99.90
2019-04-29T10:16:02.077Z,99.90
2019-04-29T10:18:38.858Z,99.90
2019-04-29T10:21:11.559Z,99.90
2019-04-29T10:23:42.299Z,99.90
2019-04-29T10:26:13.066Z,99.90
2019-04-29T10:28:57.487Z,99.90
2019-04-29T10:31:28.042Z,99.90
2019-04-29T10:33:58.662Z,99.90
2019-04-29T10:36:30.441Z,99.90
2019-04-29T10:39:08.783Z,99.90
2019-04-29T10:41:41.778Z,99.90
2019-04-29T10:44:24.561Z,99.90
2019-04-29T10:47:03.297Z,99.90
2019-04-29T10:50:02.280Z,99.90
2019-04-29T10:52:38.593Z,99.90
2019-04-29T10:55:09.301Z,99.90
2019-04-29T10:57:40.125Z,99.90
2019-04-29T11:00:25.160Z,99.90
2019-04-29T11:02:57.599Z,99.90
2019-04-29T11:05:30.755Z,99.90
2019-04-29T11:08:19.130Z,99.90
2019-04-29T11:10:51.317Z,99.90
2019-04-29T11:13:23.727Z,99.90
2019-04-29T11:15:54.314Z,99.90
2019-04-29T11:18:25.116Z,99.90
2019-04-29T11:20:55.886Z,99.90
2019-04-29T11:23:39.404Z,99.90
2019-04-29T11:26:28.620Z,99.90
2019-04-29T11:28:59.975Z,99.90
2019-04-29T11:31:30.680Z,99.90
2019-04-29T11:34:24.799Z,99.90
2019-04-29T11:36:55.563Z,99.90
2019-04-29T11:39:26.951Z,99.90
2019-04-29T11:41:59.788Z,99.90
2019-04-29T11:44:31.995Z,99.90
2019-04-29T11:47:02.772Z,99.90
2019-04-29T11:49:42.493Z,99.90
2019-04-29T11:52:13.073Z,99.90
2019-04-29T11:54:43.694Z,99.90
2019-04-29T11:57:23.431Z,99.90
2019-04-29T12:00:06.055Z,99.90
2019-04-29T12:02:46.126Z,99.90
2019-04-29T12:05:23.675Z,99.90
2019-04-29T12:07:54.502Z,99.90
2019-04-29T12:10:27.125Z,99.90
2019-04-29T12:12:59.391Z,99.90
2019-04-29T12:15:49.242Z,99.90
2019-04-29T12:18:28.317Z,99.90
2019-04-29T12:21:17.518Z,99.90
2019-04-29T12:23:52.060Z,99.90
2019-04-29T12:26:20.782Z,99.90
2019-04-29T12:28:51.326Z,99.90
2019-04-29T12:31:31.190Z,99.90
2019-04-29T12:34:30.241Z,99.90
2019-04-29T12:37:01.591Z,99.90
2019-04-29T12:39:50.602Z,99.90
2019-04-29T12:42:54.966Z,99.90
2019-04-29T12:45:30.974Z,99.90
2019-04-29T12:48:02.156Z,99.90
2019-04-29T12:50:32.651Z,99.90
2019-04-29T12:53:03.875Z,99.90
2019-04-29T12:55:44.940Z,99.90
2019-04-29T12:58:11.399Z,99.90
2019-04-29T13:00:48.964Z,99.90
2019-04-29T13:03:30.837Z,99.90
2019-04-29T13:06:23.892Z,99.90
2019-04-29T13:08:55.824Z,99.90
2019-04-29T13:11:37.464Z,99.90
2019-04-29T13:14:01.762Z,99.90
2019-04-29T13:17:13.620Z,99.90
2019-04-29T13:20:02.121Z,99.90
2019-04-29T13:22:33.118Z,99.90
2019-04-29T13:25:04.118Z,99.90
2019-04-29T13:27:35.640Z,99.90
2019-04-29T13:30:14.886Z,99.90
2019-04-29T13:32:42.557Z,99.90
2019-04-29T13:35:13.768Z,99.90
2019-04-29T13:37:54.443Z,99.90
2019-04-29T13:40:25.037Z,99.90
2019-04-29T13:42:56.558Z,99.90
2019-04-29T13:45:34.482Z,99.90
2019-04-29T13:48:18.440Z,99.90
2019-04-29T13:51:04.786Z,99.90
2019-04-29T13:53:39.597Z,99.90
2019-04-29T13:56:18.186Z,99.90
2019-04-29T13:58:43.351Z,99.90
2019-04-29T14:01:27.653Z,99.90
2019-04-29T14:04:01.393Z,99.90
2019-04-29T14:06:34.554Z,99.90
2019-04-29T14:09:07.735Z,99.90
2019-04-29T14:11:38.556Z,99.90
2019-04-29T14:14:09.239Z,99.90
2019-04-29T14:16:43.156Z,99.90
2019-04-29T14:19:12.527Z,99.90
2019-04-29T14:21:43.686Z,99.90
2019-04-29T14:24:14.137Z,99.90
2019-04-29T14:26:47.729Z,99.90
2019-04-29T14:29:30.258Z,99.90
2019-04-29T14:32:01.295Z,99.90
2019-04-29T14:35:11.754Z,99.90
2019-04-29T14:41:55.327Z,99.90
2019-04-29T14:44:42.523Z,99.90
2019-04-29T14:47:22.767Z,99.90
2019-04-29T14:49:58.309Z,99.90
2019-04-29T14:52:29.251Z,99.90
2019-04-29T14:55:41.017Z,99.90
2019-04-29T14:58:15.322Z,99.90
2019-04-29T15:01:47.546Z,99.90
2019-04-29T15:04:35.903Z,99.90
2019-04-29T15:07:06.762Z,99.90
2019-04-29T15:09:55.946Z,99.90
2019-04-29T15:12:33.567Z,99.90
2019-04-29T15:15:49.158Z,99.90
2019-04-29T15:18:47.256Z,99.90
2019-04-29T15:21:31.995Z,99.90
2019-04-29T15:23:51.394Z,99.90
2019-04-29T15:26:21.966Z,99.90
2019-04-29T15:28:54.285Z,99.90
2019-04-29T15:31:51.055Z,99.90
2019-04-29T15:34:28.488Z,99.90
2019-04-29T15:36:58.837Z,99.90
2019-04-29T15:39:51.164Z,99.90
2019-04-29T15:42:23.843Z,99.90
2019-04-29T15:45:03.136Z,99.90
2019-04-29T15:47:45.221Z,99.90
2019-04-29T15:50:22.435Z,99.90
2019-04-29T15:52:53.197Z,99.90
2019-04-29T15:55:26.376Z,99.90
2019-04-29T15:57:57.590Z,99.90
2019-04-29T16:00:37.352Z,98.80
2019-04-29T16:03:07.501Z,98.70
2019-04-29T16:06:19.292Z,98.50
2019-04-29T16:08:38.178Z,97.80
2019-04-29T16:11:37.972Z,99.60
2019-04-29T16:14:12.070Z,95.90
2019-04-29T16:16:42.523Z,96.20
2019-04-29T16:19:12.892Z,96.30
2019-04-29T16:21:43.391Z,91.50
2019-04-29T16:24:26.482Z,90.80
2019-04-29T16:26:46.105Z,92.30
2019-04-29T16:29:16.762Z,93.30
2019-04-29T16:31:47.197Z,93.40
2019-04-29T16:34:17.658Z,93.70
2019-04-29T16:36:50.172Z,90.50
2019-04-29T16:39:20.567Z,91.30
2019-04-29T16:42:01.941Z,91.20
2019-04-29T16:44:36.228Z,93.20
2019-04-29T16:47:07.523Z,92.60
2019-04-29T16:49:38.883Z,94.30
2019-04-29T16:52:18.790Z,92.90
2019-04-29T16:54:49.307Z,93.90
2019-04-29T16:57:19.906Z,89.90
2019-04-29T16:59:50.416Z,88.70
2019-04-29T17:02:21.362Z,89.20
2019-04-29T17:04:51.976Z,90.10
2019-04-29T17:07:35.137Z,92.10
2019-04-29T17:10:27.179Z,90.50
2019-04-29T17:12:57.790Z,90.00
2019-04-29T17:15:29.041Z,89.50
2019-04-29T17:17:59.462Z,89.90
2019-04-29T17:20:32.829Z,88.80
2019-04-29T17:23:03.285Z,88.40
2019-04-29T17:25:33.945Z,88.70
2019-04-29T17:28:29.023Z,86.00
2019-04-29T17:31:12.536Z,88.00
2019-04-29T17:33:49.846Z,90.00
2019-04-29T17:36:32.654Z,88.90
2019-04-29T17:39:04.881Z,87.60
2019-04-29T17:41:35.437Z,89.50
2019-04-29T17:44:38.730Z,88.30
2019-04-29T20:15:32.634Z,99.90
2019-04-29T20:18:58.352Z,99.90
2019-04-29T20:25:00.713Z,99.90
2019-04-29T20:31:48.300Z,99.90
2019-04-29T20:35:18.269Z,99.90
2019-04-29T20:41:47.038Z,99.90
2019-04-29T20:45:05.383Z,99.90
2019-04-29T20:48:42.533Z,99.90
2019-04-29T20:54:26.274Z,99.90
2019-04-29T21:00:30.796Z,99.90
2019-04-29T21:03:40.971Z,99.90
